Stations météo

réclame
Mon MeteoGroup
Malaga,Cmt, Espagne (8481): Température de l'air & dewpoint: 19.02.2018 06:00:00 - 25.02.2018 06:00:00 (CET)Malaga,Cmt, Espagne (8481): Vitesse du vent & gusts: 19.02.2018 06:00:00 - 25.02.2018 06:00:00 (CET)Malaga,Cmt, Espagne (8481): Direction du vent: 19.02.2018 06:00:00 - 25.02.2018 06:00:00 (CET)Malaga,Cmt, Espagne (8481): reduced air pressure: 19.02.2018 06:00:00 - 25.02.2018 06:00:00 (CET)Malaga,Cmt, Espagne (8481): Quantités de précipitations: 19.02.2018 06:00:00 - 25.02.2018 06:00:00 (CET)
Date & Time tt [°C] td [°C] ff [km/h] ff [knt] fx [km/h] fx [knt] dd ppp [hPa] rr [mm]
25.02.2018 06:00:00 - - - - - - - - -
25.02.2018 05:00:00 11,5 9,6 3 2 7 4 WSW 1012,9 0,2
25.02.2018 04:00:00 11,7 8,8 4 2 8 4 E 1012,9 0,2
25.02.2018 03:00:00 12,1 8,0 4 2 9 5 ENE 1012,8 0,0
25.02.2018 02:00:00 12,7 7,6 5 3 10 5 ENE 1012,8 0,0
25.02.2018 01:00:00 12,8 7,7 6 3 10 5 SE 1012,6 -
25.02.2018 00:00:00 12,7 7,6 5 3 10 5 SE 1012,4 0,0
24.02.2018 23:00:00 12,6 7,4 4 2 8 5 SSE 1012,2 0,0
24.02.2018 22:00:00 12,6 7,3 4 2 9 5 ESE 1012,0 0,0
24.02.2018 21:00:00 12,7 7,0 5 3 10 5 ESE 1011,4 0,0
24.02.2018 20:00:00 12,7 7,0 6 3 11 6 ESE 1010,9 0,0
24.02.2018 19:00:00 13,0 6,5 7 4 18 10 ESE 1010,4 -
24.02.2018 18:00:00 13,5 6,8 12 7 20 11 SE 1009,7 0,0
24.02.2018 17:00:00 15,1 7,1 11 6 21 12 SE 1009,2 0,0
24.02.2018 16:00:00 15,4 7,1 10 5 23 12 SE 1008,9 0,0
24.02.2018 15:00:00 14,5 6,4 11 6 20 11 SE 1009,3 0,0
24.02.2018 14:00:00 15,5 7,3 9 5 22 12 SE 1009,3 0,0
24.02.2018 13:00:00 13,9 6,5 12 6 23 13 ESE 1009,8 -
24.02.2018 12:00:00 13,9 6,7 13 7 24 13 ESE 1009,3 0,0
24.02.2018 11:00:00 12,8 6,1 13 7 26 14 ESE 1009,2 0,0
24.02.2018 10:00:00 12,9 6,2 9 5 21 11 E 1009,0 0,0
24.02.2018 09:00:00 11,8 5,5 9 5 20 11 E 1008,4 0,0
24.02.2018 08:00:00 11,6 5,6 9 5 21 11 E 1008,1 0,0
24.02.2018 07:00:00 11,6 5,6 12 7 21 11 E 1007,5 -
24.02.2018 06:00:00 11,9 6,5 13 7 24 13 E 1007,1 0,0
24.02.2018 05:00:00 12,0 6,7 14 7 22 12 E 1007,0 0,0
24.02.2018 04:00:00 12,1 6,8 11 6 22 12 E 1007,3 0,0
24.02.2018 03:00:00 12,1 6,8 14 8 25 14 E 1007,5 0,0
24.02.2018 02:00:00 12,7 6,7 13 7 27 15 SE 1007,4 0,0
24.02.2018 01:00:00 12,8 6,4 14 8 25 13 ESE 1007,4 -
24.02.2018 00:00:00 12,8 6,1 12 7 23 13 ESE 1007,3 0,0
23.02.2018 23:00:00 12,6 6,2 12 6 22 12 E 1007,1 0,0
23.02.2018 22:00:00 12,6 6,8 11 6 23 12 E 1006,7 0,0
23.02.2018 21:00:00 12,7 7,0 12 7 24 13 E 1006,7 0,0
23.02.2018 20:00:00 13,0 7,3 10 5 20 11 ESE 1006,5 0,0
23.02.2018 19:00:00 13,2 6,7 13 7 23 12 ESE 1006,2 -
23.02.2018 18:00:00 13,9 6,7 15 8 23 13 SE 1006,0 0,0
23.02.2018 17:00:00 14,6 5,9 15 8 24 13 ESE 1005,8 0,0
23.02.2018 16:00:00 15,7 5,3 14 7 24 13 SE 1006,2 0,0
23.02.2018 15:00:00 16,4 4,8 13 7 27 15 SSE 1006,4 0,0
23.02.2018 14:00:00 15,6 4,3 15 8 27 14 ESE 1006,9 0,0
23.02.2018 13:00:00 15,5 3,2 13 7 22 12 ESE 1007,5 -
23.02.2018 12:00:00 16,8 2,5 10 6 19 11 SE 1007,5 0,0
23.02.2018 11:00:00 15,0 -0,3 8 4 13 7 W 1007,3 0,0
23.02.2018 10:00:00 11,3 -1,4 6 4 13 7 WNW 1007,7 0,0
23.02.2018 09:00:00 8,8 -2,7 6 4 14 8 NW 1007,6 0,0
23.02.2018 08:00:00 7,8 -3,6 10 5 19 11 WNW 1007,2 0,0
23.02.2018 07:00:00 8,8 -3,3 12 7 22 12 WNW 1007,1 -
23.02.2018 06:00:00 8,4 -3,9 11 6 18 10 WNW 1006,9 0,0
23.02.2018 05:00:00 8,2 -3,3 9 5 19 11 W 1007,2 0,0
23.02.2018 04:00:00 8,4 -4,2 9 5 17 9 W 1007,4 0,0
23.02.2018 03:00:00 9,8 -3,9 4 2 15 8 NNW 1007,6 0,0
23.02.2018 02:00:00 10,3 -3,3 9 5 20 11 WNW 1007,6 0,0
23.02.2018 01:00:00 10,6 -3,6 3 1 13 7 NW 1007,9 -
23.02.2018 00:00:00 11,7 -3,6 8 4 18 10 NW 1008,0 0,0
22.02.2018 23:00:00 12,1 -3,3 8 4 14 8 NW 1008,2 0,0
22.02.2018 22:00:00 11,7 -3,3 1 1 8 5 N 1008,3 0,0
22.02.2018 21:00:00 12,6 -3,3 4 2 16 9 W 1008,2 0,0
22.02.2018 20:00:00 14,0 -3,3 6 3 22 12 NW 1007,6 0,0
22.02.2018 19:00:00 15,6 -2,5 12 7 30 16 NNW 1007,2 -
22.02.2018 18:00:00 17,1 -1,2 11 6 28 15 N 1006,6 0,0
22.02.2018 17:00:00 17,6 2,7 3 1 28 15 NNE 1006,5 0,0
22.02.2018 16:00:00 17,5 6,7 17 9 28 15 S 1007,0 0,0
22.02.2018 15:00:00 17,7 6,8 16 8 25 14 S 1007,8 0,0
22.02.2018 14:00:00 17,9 6,4 18 10 25 14 S 1009,1 0,0
22.02.2018 13:00:00 16,6 5,8 1 1 11 6 W 1010,1 -
22.02.2018 12:00:00 15,2 6,2 1 1 12 6 SSW 1010,7 0,0
22.02.2018 11:00:00 13,6 3,9 8 5 13 7 WSW 1011,5 0,0
22.02.2018 10:00:00 10,1 3,8 4 2 12 7 NW 1011,6 0,0
22.02.2018 09:00:00 6,5 2,5 8 4 11 6 W 1011,4 0,0
22.02.2018 08:00:00 6,8 1,9 3 2 11 6 W 1010,7 0,0
22.02.2018 07:00:00 7,1 2,9 3 2 13 7 N 1010,7 -
22.02.2018 06:00:00 6,3 1,9 7 4 13 7 W 1010,2 0,0
22.02.2018 05:00:00 8,8 4,3 7 4 13 7 WNW 1009,7 0,0
22.02.2018 04:00:00 8,0 3,6 8 4 11 6 W 1009,6 0,0
22.02.2018 03:00:00 10,0 5,9 3 2 7 4 NNW 1010,1 0,0
22.02.2018 02:00:00 10,7 6,7 3 2 10 5 ENE 1010,1 0,0
22.02.2018 01:00:00 11,6 8,1 6 3 16 9 ENE 1009,9 -
22.02.2018 00:00:00 12,5 8,5 10 6 20 11 E 1009,8 0,0
21.02.2018 23:00:00 13,9 -3,3 5 3 25 13 N 1009,0 0,0
21.02.2018 22:00:00 14,3 -3,0 13 7 29 16 NNE 1008,7 0,0
21.02.2018 21:00:00 14,6 -2,7 10 5 21 11 NNE 1008,3 0,0
21.02.2018 20:00:00 15,3 -1,2 10 6 23 12 NNE 1007,8 0,0
21.02.2018 19:00:00 16,5 -1,2 11 6 28 15 NNE 1007,2 -
21.02.2018 18:00:00 17,7 -0,5 15 8 43 23 NE 1006,5 0,0
21.02.2018 17:00:00 18,6 -0,7 19 10 39 21 N 1005,4 0,0
21.02.2018 16:00:00 20,0 -0,7 13 7 36 19 NNW 1005,3 0,0
21.02.2018 15:00:00 20,5 -0,7 14 8 29 16 WNW 1005,2 0,0
21.02.2018 14:00:00 20,4 0,2 9 5 39 21 NNW 1006,1 0,0
21.02.2018 13:00:00 19,3 -0,3 16 9 35 19 NNW 1006,9 -
21.02.2018 12:00:00 19,0 0,6 8 4 29 16 NNW 1007,3 0,0
21.02.2018 11:00:00 17,1 1,9 14 8 34 19 WNW 1008,1 0,0
21.02.2018 10:00:00 14,6 3,8 16 9 31 17 W 1009,2 0,0
21.02.2018 09:00:00 12,9 3,6 18 10 33 18 W 1009,1 0,0
21.02.2018 08:00:00 12,1 3,6 14 8 29 16 W 1009,0 0,0
21.02.2018 07:00:00 12,2 3,6 10 5 16 9 WSW 1009,3 -
21.02.2018 06:00:00 13,0 4,5 8 4 17 9 WNW 1009,7 0,0
21.02.2018 05:00:00 13,5 4,6 9 5 18 10 W 1010,4 0,0
21.02.2018 04:00:00 13,6 5,0 7 4 16 9 W 1011,2 0,0
21.02.2018 03:00:00 12,8 4,3 11 6 15 8 W 1012,0 0,0
21.02.2018 02:00:00 13,9 4,1 9 5 18 10 W 1012,4 0,0
21.02.2018 01:00:00 14,8 4,1 8 4 21 11 W 1013,0 -
21.02.2018 00:00:00 15,0 4,3 6 3 15 8 W 1013,5 0,0
20.02.2018 23:00:00 16,2 4,3 6 3 17 9 WNW 1013,6 0,0
20.02.2018 22:00:00 16,8 4,5 7 4 16 8 WNW 1013,8 0,0
20.02.2018 21:00:00 15,7 6,1 6 3 12 7 WNW 1013,8 0,0
20.02.2018 20:00:00 15,5 10,9 4 2 16 8 WSW 1013,9 0,0
20.02.2018 19:00:00 16,1 10,2 11 6 17 9 ENE 1013,8 -
20.02.2018 18:00:00 17,9 9,6 10 5 17 9 E 1013,9 0,0
20.02.2018 17:00:00 18,7 8,9 10 5 22 12 ENE 1013,9 0,0
20.02.2018 16:00:00 20,3 8,9 8 5 18 10 E 1014,0 0,0
20.02.2018 15:00:00 19,9 8,3 11 6 19 10 ENE 1014,7 0,0
20.02.2018 14:00:00 20,7 8,9 11 6 17 9 ESE 1015,5 0,0
20.02.2018 13:00:00 20,7 6,2 6 3 15 8 SW 1016,4 -
20.02.2018 12:00:00 17,9 7,0 13 7 19 10 WSW 1017,8 0,0
20.02.2018 11:00:00 14,9 7,4 13 7 19 10 W 1018,5 0,0
20.02.2018 10:00:00 11,9 8,4 6 3 12 7 WNW 1019,0 0,0
20.02.2018 09:00:00 9,2 7,8 5 3 14 8 WNW 1019,2 0,0
20.02.2018 08:00:00 9,0 7,7 8 5 14 8 W 1018,6 0,0
20.02.2018 07:00:00 8,8 7,4 5 3 10 5 W 1018,7 -
20.02.2018 06:00:00 9,8 8,1 8 4 11 6 W 1018,7 0,0
20.02.2018 05:00:00 10,7 9,3 5 3 9 5 WNW 1018,7 0,0
20.02.2018 04:00:00 11,0 10,0 4 2 9 5 NNW 1019,1 0,0
20.02.2018 03:00:00 11,6 10,6 3 2 7 4 W 1019,2 0,0
20.02.2018 02:00:00 12,2 11,0 5 3 7 4 WSW 1019,3 0,0
20.02.2018 01:00:00 12,2 11,0 1 1 6 3 W 1019,4 -
20.02.2018 00:00:00 12,8 11,6 4 2 5 3 WSW 1019,3 0,0
19.02.2018 23:00:00 13,0 11,8 0 0 5 3 WSW 1019,5 0,0
19.02.2018 22:00:00 13,2 11,8 4 2 7 4 ESE 1019,3 0,0
19.02.2018 21:00:00 13,5 11,7 4 2 12 7 SE 1019,0 0,0
19.02.2018 20:00:00 13,9 11,9 8 4 12 7 ESE 1018,8 0,0
19.02.2018 19:00:00 14,6 11,6 10 5 14 8 ESE 1018,4 -
19.02.2018 18:00:00 15,5 11,4 10 5 16 9 SE 1017,9 0,0
19.02.2018 17:00:00 15,7 11,1 11 6 20 11 ESE 1018,0 0,0
19.02.2018 16:00:00 16,3 11,4 13 7 21 11 SE 1017,8 0,0
19.02.2018 15:00:00 15,6 11,0 13 7 21 11 ESE 1018,2 0,0
19.02.2018 14:00:00 17,2 11,2 11 6 17 9 ESE 1018,4 0,0
19.02.2018 13:00:00 17,6 11,0 4 2 9 5 SW 1019,0 -
19.02.2018 12:00:00 16,7 11,8 3 2 9 5 WSW 1019,4 0,0
19.02.2018 11:00:00 13,6 12,8 5 3 8 5 WSW 1019,7 0,0
19.02.2018 10:00:00 11,6 11,1 5 3 11 6 WNW 1019,8 0,0
19.02.2018 09:00:00 11,5 11,0 6 3 9 5 W 1019,5 0,1
19.02.2018 08:00:00 11,9 11,4 5 3 9 5 W 1019,4 0,0
19.02.2018 07:00:00 11,9 11,4 4 2 8 4 W 1019,3 -
19.02.2018 06:00:00 12,2 11,8 5 3 7 4 WSW 1019,4 0,0

tt = Température de l'air
td = dewpoint
ff = Vitesse du vent
fx = gusts
dd = Direction du vent
ppp = reduced air pressure
rr = Quantités de précipitations

stations d'obs. à proximité